createdAt,value
2023-04-14T00:01:43.181Z,100253.13
2023-04-14T00:04:10.283Z,100244.06
2023-04-14T00:06:37.598Z,100248.06
2023-04-14T00:09:04.942Z,100263.75
2023-04-14T00:11:31.853Z,100258.13
2023-04-14T00:14:01.308Z,100261.31
2023-04-14T00:16:28.400Z,100236.47
2023-04-14T00:18:55.396Z,100222.72
2023-04-14T00:21:22.822Z,100281.84
2023-04-14T00:23:50.114Z,100238.31
2023-04-14T00:26:17.079Z,100271.53
2023-04-14T00:28:45.053Z,100271.50
2023-04-14T00:31:12.951Z,100283.56
2023-04-14T00:33:39.988Z,100291.34
2023-04-14T00:36:07.393Z,100280.50
2023-04-14T00:38:34.365Z,100288.16
2023-04-14T00:41:01.667Z,100288.50
2023-04-14T00:43:28.710Z,100279.38
2023-04-14T00:45:55.871Z,100312.38
2023-04-14T00:48:23.000Z,100310.41
2023-04-14T00:50:50.071Z,100305.75
2023-04-14T00:53:17.465Z,100278.03
2023-04-14T00:55:44.578Z,100327.50
2023-04-14T00:58:12.936Z,100266.22
2023-04-14T01:00:39.962Z,100318.28
2023-04-14T01:03:07.682Z,100330.44
2023-04-14T01:05:34.845Z,100314.59
2023-04-14T01:08:03.596Z,100313.78
2023-04-14T01:10:38.569Z,100325.75
2023-04-14T01:13:16.232Z,100311.75
2023-04-14T01:15:52.797Z,100313.91
2023-04-14T01:18:29.570Z,100329.16
2023-04-14T01:21:00.232Z,100347.41
2023-04-14T01:23:35.410Z,100334.19
2023-04-14T01:26:15.757Z,100333.78
2023-04-14T01:28:49.623Z,100347.63
2023-04-14T01:31:29.845Z,100339.50
2023-04-14T01:33:59.342Z,100343.69
2023-04-14T01:36:42.381Z,100346.25
2023-04-14T01:39:14.413Z,100339.56
2023-04-14T01:41:49.049Z,100347.69
2023-04-14T01:44:19.611Z,100358.78
2023-04-14T01:46:49.595Z,100324.25
2023-04-14T01:49:19.547Z,100358.25
2023-04-14T01:51:48.215Z,100354.88
2023-04-14T01:54:18.279Z,100358.47
2023-04-14T01:56:47.571Z,100351.72
2023-04-14T01:59:15.709Z,100339.28
2023-04-14T02:01:44.353Z,100344.88
2023-04-14T02:04:12.771Z,100383.50
2023-04-14T02:06:40.893Z,100380.56
2023-04-14T02:09:12.487Z,100396.16
2023-04-14T02:11:40.747Z,100371.13
2023-04-14T02:14:09.969Z,100368.47
2023-04-14T02:16:39.243Z,100363.75
2023-04-14T02:19:07.382Z,100326.56
2023-04-14T02:21:35.801Z,100398.81
2023-04-14T02:24:03.811Z,100387.56
2023-04-14T02:26:34.226Z,100410.06
2023-04-14T02:29:16.320Z,100419.38
2023-04-14T02:31:48.245Z,100415.94
2023-04-14T02:34:18.502Z,100410.41
2023-04-14T02:36:52.482Z,100424.66
2023-04-14T02:39:29.829Z,100362.72
2023-04-14T02:42:13.892Z,100429.34
2023-04-14T02:44:56.879Z,100433.41
2023-04-14T02:47:31.946Z,100423.13
2023-04-14T02:50:02.655Z,100431.63
2023-04-14T02:52:32.370Z,100372.63
2023-04-14T02:55:01.834Z,100435.97
2023-04-14T02:57:31.326Z,100440.00
2023-04-14T02:59:59.236Z,100450.34
2023-04-14T03:02:28.750Z,100429.16
2023-04-14T03:05:05.212Z,100426.66
2023-04-14T03:07:43.792Z,100452.66
2023-04-14T03:10:12.995Z,100452.09
2023-04-14T03:12:42.144Z,100427.31
2023-04-14T03:15:11.048Z,100436.63
2023-04-14T03:17:40.262Z,100447.84
2023-04-14T03:20:09.446Z,100446.88
2023-04-14T03:22:40.958Z,100447.84
2023-04-14T03:25:12.580Z,100403.72
2023-04-14T03:27:44.604Z,100472.34
2023-04-14T03:30:13.674Z,100464.06
2023-04-14T03:32:43.720Z,100471.28
2023-04-14T03:35:15.733Z,100468.97
2023-04-14T03:37:46.232Z,100457.97
2023-04-14T03:40:15.616Z,100480.84
2023-04-14T03:42:46.377Z,100482.50
2023-04-14T03:45:18.268Z,100477.28
2023-04-14T03:47:57.659Z,100439.47
2023-04-14T03:50:30.760Z,100434.69
2023-04-14T03:53:01.274Z,100467.03
2023-04-14T03:55:32.083Z,100427.84
2023-04-14T03:58:05.474Z,100461.84
2023-04-14T04:00:37.181Z,100473.38
2023-04-14T04:03:06.181Z,100446.81
2023-04-14T04:05:41.438Z,100454.06
2023-04-14T04:08:10.812Z,100484.56
2023-04-14T04:10:39.163Z,100478.03
2023-04-14T04:13:12.884Z,100493.25
2023-04-14T04:15:42.107Z,100478.72
2023-04-14T04:18:14.192Z,100488.94
2023-04-14T04:20:42.537Z,100492.59
2023-04-14T04:23:10.854Z,100479.75
2023-04-14T04:25:39.923Z,100508.34
2023-04-14T04:28:17.334Z,100491.28
2023-04-14T04:30:46.574Z,100498.19
2023-04-14T04:33:15.810Z,100504.06
2023-04-14T04:35:44.405Z,100504.66
2023-04-14T04:38:11.869Z,100501.41
2023-04-14T04:40:42.991Z,100496.22
2023-04-14T04:43:21.898Z,100518.75
2023-04-14T04:46:26.240Z,100454.63
2023-04-14T04:48:55.619Z,100475.84
2023-04-14T04:51:26.153Z,100511.28
2023-04-14T04:53:53.166Z,100513.53
2023-04-14T04:56:21.648Z,100492.59
2023-04-14T04:58:48.784Z,100512.09
2023-04-14T05:01:16.838Z,100517.69
2023-04-14T05:03:43.931Z,100499.28
2023-04-14T05:06:10.878Z,100505.19
2023-04-14T05:08:37.915Z,100511.47
2023-04-14T05:11:06.175Z,100512.50
2023-04-14T05:13:33.279Z,100505.16
2023-04-14T05:16:08.220Z,100514.53
2023-04-14T05:18:36.364Z,100457.44
2023-04-14T05:21:04.970Z,100522.84
2023-04-14T05:23:36.770Z,100525.59
2023-04-14T05:26:27.078Z,100523.00
2023-04-14T05:28:51.917Z,100506.25
2023-04-14T05:31:20.354Z,100528.50
2023-04-14T05:33:47.421Z,100519.97
2023-04-14T05:36:14.430Z,100509.41
2023-04-14T05:38:41.890Z,100516.84
2023-04-14T05:41:09.312Z,100526.75
2023-04-14T05:43:37.288Z,100521.63
2023-04-14T05:46:04.598Z,100522.06
2023-04-14T05:48:33.568Z,100521.75
2023-04-14T05:51:00.907Z,100511.91
2023-04-14T05:53:28.023Z,100506.66
2023-04-14T05:55:57.272Z,100510.97
2023-04-14T05:58:26.780Z,100522.91
2023-04-14T06:00:53.831Z,100519.59
2023-04-14T06:03:21.242Z,100523.22
2023-04-14T06:05:48.472Z,100528.59
2023-04-14T06:08:15.588Z,100467.03
2023-04-14T06:10:42.609Z,100519.97
2023-04-14T06:13:09.786Z,100530.66
2023-04-14T06:15:37.492Z,100521.66
2023-04-14T06:18:04.664Z,100512.25
2023-04-14T06:20:32.492Z,100518.81
2023-04-14T06:23:00.989Z,100500.44
2023-04-14T06:25:27.991Z,100526.13
2023-04-14T06:27:54.981Z,100520.09
2023-04-14T06:30:22.058Z,100521.00
2023-04-14T06:32:54.448Z,100533.69
2023-04-14T06:35:32.490Z,100472.38
2023-04-14T06:38:02.069Z,100519.28
2023-04-14T06:40:29.434Z,100507.19
2023-04-14T06:42:56.439Z,100515.75
2023-04-14T06:45:23.426Z,100538.16
2023-04-14T06:47:50.504Z,100518.25
2023-04-14T06:50:17.674Z,100539.59
2023-04-14T06:52:44.628Z,100515.94
2023-04-14T06:55:11.764Z,100536.75
2023-04-14T06:57:39.273Z,100523.06
2023-04-14T07:00:07.748Z,100537.75
2023-04-14T07:02:34.769Z,100542.78
2023-04-14T07:05:01.936Z,100518.41
2023-04-14T07:07:29.909Z,100528.09
2023-04-14T07:09:56.958Z,100538.63
2023-04-14T07:12:24.004Z,100549.00
2023-04-14T07:14:53.968Z,100548.97
2023-04-14T07:17:21.086Z,100547.41
2023-04-14T07:19:48.017Z,100545.34
2023-04-14T07:22:14.979Z,100551.63
2023-04-14T07:24:42.004Z,100557.78
2023-04-14T07:27:15.647Z,100552.16
2023-04-14T07:29:43.016Z,100540.16
2023-04-14T07:32:10.229Z,100556.66
2023-04-14T07:34:37.267Z,100562.94
2023-04-14T07:37:04.310Z,100552.78
2023-04-14T07:39:31.393Z,100556.91
2023-04-14T07:41:59.114Z,100550.06
2023-04-14T07:44:26.488Z,100546.50
2023-04-14T07:46:53.473Z,100544.78
2023-04-14T07:49:20.532Z,100532.59
2023-04-14T07:51:47.696Z,100540.28
2023-04-14T07:54:15.302Z,100552.28
2023-04-14T07:56:42.302Z,100534.78
2023-04-14T07:59:09.328Z,100541.97
2023-04-14T08:01:36.333Z,100545.56
2023-04-14T08:04:03.525Z,100551.56
2023-04-14T08:06:30.948Z,100547.13
2023-04-14T08:08:58.024Z,100531.59
2023-04-14T08:11:25.394Z,100528.97
2023-04-14T08:13:53.139Z,100534.34
2023-04-14T08:16:20.709Z,100532.56
2023-04-14T08:18:47.805Z,100522.06
2023-04-14T08:21:14.753Z,100537.84
2023-04-14T08:23:41.706Z,100549.94
2023-04-14T08:26:08.771Z,100535.34
2023-04-14T08:28:35.851Z,100526.28
2023-04-14T08:31:02.833Z,100536.53
2023-04-14T08:33:29.824Z,100480.81
2023-04-14T08:35:59.479Z,100517.66
2023-04-14T08:38:27.667Z,100480.03
2023-04-14T08:40:56.612Z,100499.31
2023-04-14T08:43:24.937Z,100525.56
2023-04-14T08:45:53.822Z,100517.34
2023-04-14T08:48:23.631Z,100510.97
2023-04-14T08:51:04.863Z,100525.34
2023-04-14T08:53:33.126Z,100526.03
2023-04-14T08:56:03.735Z,100528.63
2023-04-14T08:58:31.908Z,100526.97
2023-04-14T09:00:59.654Z,100550.31
2023-04-14T09:03:27.474Z,100517.81
2023-04-14T09:05:54.910Z,100505.59
2023-04-14T09:08:21.979Z,100538.69
2023-04-14T09:10:50.236Z,100530.97
2023-04-14T09:13:19.588Z,100527.59
2023-04-14T09:15:46.715Z,100504.38
2023-04-14T09:18:14.139Z,100531.38
2023-04-14T09:20:42.135Z,100539.47
2023-04-14T09:23:10.759Z,100532.94
2023-04-14T09:25:39.685Z,100502.28
2023-04-14T09:28:06.889Z,100539.69
2023-04-14T09:30:34.495Z,100532.25
2023-04-14T09:33:08.393Z,100529.53
2023-04-14T09:35:49.322Z,100528.88
2023-04-14T09:38:39.861Z,100522.81
2023-04-14T09:41:07.217Z,100540.09
2023-04-14T09:43:34.918Z,100507.19
2023-04-14T09:46:07.755Z,100534.63
2023-04-14T09:48:36.542Z,100530.97
2023-04-14T09:51:13.134Z,100553.56
2023-04-14T09:53:44.678Z,100552.03
2023-04-14T09:56:13.290Z,100561.06
2023-04-14T09:58:42.077Z,100561.00
2023-04-14T10:01:13.197Z,100551.78
2023-04-14T10:03:41.251Z,100551.72
2023-04-14T10:06:10.793Z,100555.28
2023-04-14T10:08:40.009Z,100539.56
2023-04-14T10:11:17.381Z,100563.16
2023-04-14T10:13:46.243Z,100566.66
2023-04-14T10:16:13.621Z,100557.97
2023-04-14T10:18:40.710Z,100550.94
2023-04-14T10:21:09.518Z,100558.84
2023-04-14T10:23:38.421Z,100584.88
2023-04-14T10:26:12.989Z,100566.84
2023-04-14T10:28:49.077Z,100602.31
2023-04-14T10:31:29.434Z,100582.44
2023-04-14T10:33:56.546Z,100591.34
2023-04-14T10:36:28.485Z,100562.84
2023-04-14T10:39:05.498Z,100565.00
2023-04-14T10:41:47.538Z,100562.91
2023-04-14T10:44:24.362Z,100591.38
2023-04-14T10:46:52.314Z,100607.75
2023-04-14T10:49:22.049Z,100598.53
2023-04-14T10:51:50.035Z,100591.59
2023-04-14T10:54:21.336Z,100589.72
2023-04-14T10:57:18.607Z,100591.97
2023-04-14T10:59:47.594Z,100541.94
2023-04-14T11:02:30.518Z,100589.03
2023-04-14T11:05:10.608Z,100578.41
2023-04-14T11:07:45.686Z,100593.91
2023-04-14T11:10:21.935Z,100601.28
2023-04-14T11:12:56.322Z,100599.41
2023-04-14T11:15:23.751Z,100583.69
2023-04-14T11:17:51.677Z,100601.16
2023-04-14T11:20:22.997Z,100602.03
2023-04-14T11:22:56.687Z,100589.28
2023-04-14T11:25:25.030Z,100616.03
2023-04-14T11:27:53.069Z,100452.78
2023-04-14T11:30:21.287Z,100611.63
2023-04-14T11:32:50.348Z,100606.69
2023-04-14T11:35:18.897Z,100581.22
2023-04-14T11:37:46.533Z,100600.25
2023-04-14T11:40:15.148Z,100601.75
2023-04-14T11:42:49.078Z,100601.44
2023-04-14T11:45:16.212Z,100578.56
2023-04-14T11:48:04.570Z,100593.78
2023-04-14T11:50:38.975Z,100597.66
2023-04-14T11:53:10.077Z,100566.28
2023-04-14T11:55:37.353Z,100591.84
2023-04-14T11:58:04.957Z,100592.28
2023-04-14T12:00:32.095Z,100599.97
2023-04-14T12:03:02.947Z,100582.44
2023-04-14T12:05:31.882Z,100586.22
2023-04-14T12:08:12.272Z,100594.78
2023-04-14T12:10:57.873Z,100587.78
2023-04-14T12:13:25.147Z,100575.38
2023-04-14T12:15:52.926Z,100564.78
2023-04-14T12:20:54.009Z,100586.59
2023-04-14T12:23:21.374Z,100600.22
2023-04-14T12:25:52.464Z,100574.06
2023-04-14T12:28:29.781Z,100574.13
2023-04-14T12:30:59.717Z,100580.53
2023-04-14T12:33:30.525Z,100587.16
2023-04-14T12:36:07.810Z,100576.91
2023-04-14T12:38:34.932Z,100584.03
2023-04-14T12:41:02.410Z,100559.53
2023-04-14T12:43:32.580Z,100598.75
2023-04-14T12:46:00.021Z,100591.47
2023-04-14T12:48:41.147Z,100584.63
2023-04-14T12:51:11.147Z,100571.28
2023-04-14T12:53:39.710Z,100589.00
2023-04-14T12:56:14.185Z,100593.63
2023-04-14T12:58:43.736Z,100587.59
2023-04-14T13:01:11.856Z,100564.41
2023-04-14T13:03:55.572Z,100583.72
2023-04-14T13:06:24.057Z,100586.44
2023-04-14T13:08:54.783Z,100604.56
2023-04-14T13:11:23.759Z,100587.84
2023-04-14T13:13:52.538Z,100597.25
2023-04-14T13:16:19.872Z,100624.94
2023-04-14T13:18:48.431Z,100608.16
2023-04-14T13:21:16.691Z,100608.34
2023-04-14T13:23:43.902Z,100616.13
2023-04-14T13:26:10.974Z,100597.28
2023-04-14T13:28:38.046Z,100597.00
2023-04-14T13:31:05.168Z,100603.34
2023-04-14T13:33:32.704Z,100613.13
2023-04-14T13:35:59.814Z,100610.31
2023-04-14T13:38:27.323Z,100614.66
2023-04-14T13:40:54.383Z,100623.84
2023-04-14T13:43:21.724Z,100603.81
2023-04-14T13:45:48.734Z,100606.59
2023-04-14T13:48:15.850Z,100581.78
2023-04-14T13:50:42.825Z,100611.47
2023-04-14T13:53:09.878Z,100602.53
2023-04-14T13:55:38.288Z,100604.03
2023-04-14T13:58:05.277Z,100596.44
2023-04-14T14:00:32.316Z,100617.72
2023-04-14T14:02:59.562Z,100610.53
2023-04-14T14:05:27.331Z,100620.94
2023-04-14T14:07:55.545Z,100600.09
2023-04-14T14:10:27.675Z,100618.03
2023-04-14T14:12:55.417Z,100623.72
2023-04-14T14:15:22.420Z,100625.88
2023-04-14T14:17:49.450Z,100627.56
2023-04-14T14:20:16.672Z,100607.06
2023-04-14T14:22:43.739Z,100637.34
2023-04-14T14:25:21.109Z,100636.44
2023-04-14T14:27:50.320Z,100617.94
2023-04-14T14:30:17.317Z,100631.94
2023-04-14T14:32:44.353Z,100629.09
2023-04-14T14:35:11.437Z,100632.59
2023-04-14T14:37:38.635Z,100622.44
2023-04-14T14:40:06.701Z,100634.38
2023-04-14T14:42:33.704Z,100614.22
2023-04-14T14:45:01.539Z,100635.00
2023-04-14T14:47:30.394Z,100623.50
2023-04-14T14:50:02.292Z,100652.94
2023-04-14T14:52:36.723Z,100650.94
2023-04-14T14:55:04.366Z,100656.16
2023-04-14T14:57:31.708Z,100647.56
2023-04-14T14:59:58.849Z,100647.47
2023-04-14T15:02:26.248Z,100642.16
2023-04-14T15:04:56.434Z,100649.47
2023-04-14T15:07:23.431Z,100670.78
2023-04-14T15:09:50.785Z,100649.75
2023-04-14T15:12:18.359Z,100665.66
2023-04-14T15:14:45.779Z,100666.81
2023-04-14T15:17:12.834Z,100673.00
2023-04-14T15:19:41.410Z,100659.97
2023-04-14T15:22:09.012Z,100679.28
2023-04-14T15:24:36.048Z,100684.47
2023-04-14T15:27:03.820Z,100683.63
2023-04-14T15:29:31.476Z,100680.94
2023-04-14T15:31:58.702Z,100646.63
2023-04-14T15:34:26.141Z,100688.69
2023-04-14T15:36:53.405Z,100675.25
2023-04-14T15:39:20.435Z,100688.28
2023-04-14T15:41:49.250Z,100696.03
2023-04-14T15:44:16.281Z,100706.38
2023-04-14T15:46:43.266Z,100702.09
2023-04-14T15:49:10.399Z,100693.22
2023-04-14T15:51:37.458Z,100704.47
2023-04-14T15:54:05.362Z,100708.31
2023-04-14T15:56:32.467Z,100689.06
2023-04-14T15:58:59.400Z,100706.53
2023-04-14T16:01:26.469Z,100727.06
2023-04-14T16:03:53.547Z,100707.47
2023-04-14T16:06:20.596Z,100736.59
2023-04-14T16:08:47.539Z,100741.31
2023-04-14T16:11:16.453Z,100730.03
2023-04-14T16:13:46.813Z,100735.06
2023-04-14T16:16:15.162Z,100708.06
2023-04-14T16:18:42.610Z,100729.31
2023-04-14T16:21:09.714Z,100741.50
2023-04-14T16:23:36.706Z,100749.84
2023-04-14T16:26:03.798Z,100710.00
2023-04-14T16:28:30.762Z,100717.91
2023-04-14T16:31:01.589Z,100754.81
2023-04-14T16:33:29.141Z,100766.25
2023-04-14T16:35:57.184Z,100761.81
2023-04-14T16:38:24.553Z,100778.97
2023-04-14T16:40:58.686Z,100777.50
2023-04-14T16:43:28.086Z,100784.03
2023-04-14T16:46:02.218Z,100777.00
2023-04-14T16:48:29.519Z,100791.78
2023-04-14T16:50:56.655Z,100759.06
2023-04-14T16:53:23.969Z,100776.38
2023-04-14T16:55:50.965Z,100791.22
2023-04-14T16:58:17.925Z,100799.56
2023-04-14T17:00:44.893Z,100806.50
2023-04-14T17:03:12.215Z,100809.00
2023-04-14T17:05:39.393Z,100804.84
2023-04-14T17:08:06.468Z,100818.97
2023-04-14T17:10:33.461Z,100817.00
2023-04-14T17:13:00.474Z,100806.91
2023-04-14T17:15:27.904Z,100833.22
2023-04-14T17:17:54.968Z,100821.75
2023-04-14T17:20:21.976Z,100818.75
2023-04-14T17:22:51.219Z,100838.84
2023-04-14T17:25:19.998Z,100846.59
2023-04-14T17:27:48.318Z,100836.22
2023-04-14T17:30:15.340Z,100798.56
2023-04-14T17:32:42.613Z,100855.47
2023-04-14T17:35:10.692Z,100849.56
2023-04-14T17:37:37.792Z,100855.34
2023-04-14T17:40:05.601Z,100859.69
2023-04-14T17:42:34.357Z,100859.41
2023-04-14T17:45:01.673Z,100856.06
2023-04-14T17:47:31.627Z,100856.75
2023-04-14T17:49:58.614Z,100874.09
2023-04-14T17:52:25.605Z,100869.25
2023-04-14T17:54:52.805Z,100875.47
2023-04-14T17:57:19.921Z,100859.53
2023-04-14T17:59:46.908Z,100872.03
2023-04-14T18:02:15.777Z,100871.91
2023-04-14T18:04:42.966Z,100873.97
2023-04-14T18:07:10.339Z,100876.44
2023-04-14T18:09:37.372Z,100882.59
2023-04-14T18:12:05.043Z,100883.94
2023-04-14T18:14:32.878Z,100866.94
2023-04-14T18:17:00.075Z,100886.75
2023-04-14T18:19:27.152Z,100818.31
2023-04-14T18:21:55.902Z,100898.13
2023-04-14T18:26:54.638Z,100896.28
2023-04-14T18:29:21.755Z,100898.00
2023-04-14T18:31:50.039Z,100777.38
2023-04-14T18:34:17.551Z,100890.47
2023-04-14T18:36:44.506Z,100903.72
2023-04-14T18:39:11.545Z,100879.09
2023-04-14T18:41:38.799Z,100903.28
2023-04-14T18:44:06.705Z,100906.75
2023-04-14T18:46:33.851Z,100909.09
2023-04-14T18:49:01.747Z,100900.47
2023-04-14T18:51:28.885Z,100874.66
2023-04-14T18:53:55.920Z,100917.72
2023-04-14T18:56:22.879Z,100898.38
2023-04-14T18:58:51.467Z,100905.78
2023-04-14T19:01:19.198Z,100915.09
2023-04-14T19:03:47.350Z,100891.81
2023-04-14T19:06:14.706Z,100910.31
2023-04-14T19:08:41.821Z,100910.75
2023-04-14T19:11:10.016Z,100923.97
2023-04-14T19:13:38.667Z,100918.59
2023-04-14T19:16:12.579Z,100909.56
2023-04-14T19:18:40.662Z,100922.38
2023-04-14T19:21:09.208Z,100928.13
2023-04-14T19:23:37.069Z,100903.56
2023-04-14T19:26:06.444Z,100917.59
2023-04-14T19:28:33.842Z,100931.94
2023-04-14T19:31:03.094Z,100925.88
2023-04-14T19:33:31.603Z,100934.56
2023-04-14T19:35:58.847Z,100938.53
2023-04-14T19:38:25.812Z,100921.38
2023-04-14T19:40:53.110Z,100943.34
2023-04-14T19:43:20.212Z,100918.31
2023-04-14T19:45:54.340Z,100943.88
2023-04-14T19:48:24.049Z,100945.47
2023-04-14T19:50:55.326Z,100899.06
2023-04-14T19:53:23.681Z,100937.47
2023-04-14T19:55:51.834Z,100938.75
2023-04-14T19:58:21.502Z,100964.19
2023-04-14T20:00:51.741Z,100941.97
2023-04-14T20:03:19.943Z,100961.28
2023-04-14T20:05:51.071Z,100962.75
2023-04-14T20:08:18.522Z,100973.69
2023-04-14T20:10:46.183Z,100971.56
2023-04-14T20:13:15.547Z,100980.81
2023-04-14T20:15:42.969Z,100968.00
2023-04-14T20:18:10.489Z,100967.28
2023-04-14T20:20:40.856Z,100990.91
2023-04-14T20:23:07.865Z,100978.13
2023-04-14T20:25:36.127Z,100976.91
2023-04-14T20:28:04.181Z,100966.09
2023-04-14T20:30:33.879Z,100979.22
2023-04-14T20:33:04.704Z,100997.69
2023-04-14T20:35:35.786Z,100992.00
2023-04-14T20:38:02.888Z,101007.63
2023-04-14T20:40:30.324Z,100990.28
2023-04-14T20:42:57.437Z,100950.81
2023-04-14T20:45:24.799Z,101014.72
2023-04-14T20:47:51.941Z,101015.44
2023-04-14T20:50:19.086Z,100993.09
2023-04-14T20:52:46.653Z,100986.56
2023-04-14T20:55:13.696Z,101021.59
2023-04-14T20:57:42.850Z,101017.22
2023-04-14T21:00:12.220Z,101010.06
2023-04-14T21:02:39.369Z,101018.75
2023-04-14T21:05:07.253Z,101035.50
2023-04-14T21:07:39.791Z,101014.50
2023-04-14T21:10:09.361Z,101042.13
2023-04-14T21:12:37.211Z,101028.22
2023-04-14T21:15:49.131Z,101043.75
2023-04-14T21:18:11.951Z,101048.09
2023-04-14T21:20:39.053Z,101050.41
2023-04-14T21:23:06.016Z,101035.06
2023-04-14T21:25:34.463Z,101060.06
2023-04-14T21:28:02.468Z,101047.84
2023-04-14T21:30:29.436Z,101047.47
2023-04-14T21:32:56.501Z,100994.41
2023-04-14T21:35:23.521Z,101053.13
2023-04-14T21:37:50.538Z,101033.16
2023-04-14T21:40:17.509Z,100993.34
2023-04-14T21:42:44.454Z,101062.47
2023-04-14T21:45:11.638Z,101062.34
2023-04-14T21:47:38.776Z,101074.94
2023-04-14T21:50:07.394Z,101078.50
2023-04-14T21:52:34.321Z,101066.13
2023-04-14T21:55:01.300Z,101052.53
2023-04-14T21:57:42.904Z,101060.59
2023-04-14T22:00:17.884Z,101071.88
2023-04-14T22:02:45.853Z,101094.47
2023-04-14T22:05:14.740Z,101097.94
2023-04-14T22:07:41.692Z,101091.91
2023-04-14T22:10:08.938Z,101088.97
2023-04-14T22:12:39.952Z,101023.28
2023-04-14T22:15:08.879Z,101045.09
2023-04-14T22:17:37.541Z,101094.63
2023-04-14T22:20:09.857Z,101084.16
2023-04-14T22:22:36.949Z,101098.19
2023-04-14T22:25:04.658Z,101096.22
2023-04-14T22:27:34.018Z,101085.88
2023-04-14T22:30:02.084Z,101090.03
2023-04-14T22:32:31.210Z,101090.03
2023-04-14T22:34:58.154Z,101072.09
2023-04-14T22:37:25.126Z,101110.28
2023-04-14T22:39:52.107Z,101071.72
2023-04-14T22:42:19.041Z,101087.41
2023-04-14T22:44:48.124Z,101111.31
2023-04-14T22:47:15.628Z,101117.34
2023-04-14T22:49:42.588Z,101112.47
2023-04-14T22:52:09.564Z,101095.06
2023-04-14T22:54:36.610Z,101119.13
2023-04-14T22:57:04.992Z,101127.03
2023-04-14T22:59:32.203Z,101126.06
2023-04-14T23:01:59.321Z,101127.72
2023-04-14T23:06:53.681Z,101140.09
2023-04-14T23:09:21.262Z,101138.50
2023-04-14T23:11:48.609Z,101137.22
2023-04-14T23:14:15.849Z,101136.91
2023-04-14T23:16:43.899Z,101133.28
2023-04-14T23:19:10.897Z,101156.56
2023-04-14T23:21:37.884Z,101153.09
2023-04-14T23:24:05.701Z,101152.13
2023-04-14T23:26:32.629Z,101160.94
2023-04-14T23:28:59.841Z,101159.13
2023-04-14T23:31:29.778Z,101154.69
2023-04-14T23:33:56.918Z,101172.56
2023-04-14T23:36:24.274Z,101171.28
2023-04-14T23:38:51.259Z,101172.88
2023-04-14T23:41:19.115Z,101179.56
2023-04-14T23:43:46.816Z,101166.53
2023-04-14T23:46:13.842Z,101128.09
2023-04-14T23:48:41.263Z,101173.84
2023-04-14T23:51:21.087Z,101183.72
2023-04-14T23:53:49.412Z,101178.25
2023-04-14T23:56:16.666Z,101193.09
2023-04-14T23:58:43.981Z,101186.09
